ブリュッセル の空港の天気 - METARとTAF

ブリュッセル国際空港 ( EBBR / BRU ) - ベルギー ブリュッセル / Zaventem
飛行場実況気象(Metar)
観測時間03/09 07:50 CET (03/09 06:50 UTC)
風向・風速西南西 5m/s
視程10km以上
天気現象
全天の8割程度の雲 雲底高度 1040m
気温4℃
湿度81%
気圧1018hPa
METAREBBR 090650Z 25009KT 9999 BKN034 04/01 Q1018 BECMG BKN012
過去の天気等 Google飛行場航空写真 Wunderground天気予報

過去48時間のMETAR

飛行場予報(TAF)
発表時間: 3/09 06:00 CET (3/09 05:00 UTC)
予報対象時間: 9日7時 CET ~ 10日13時 CET
風向・風速西 4m/s
視程8000m
天気現象弱い雨
全天の4割程度の雲 雲底高度 240m
全天の8割程度の雲 雲底高度 430m
9日8時 CET ~ 9日15時 CET に 確率 40% で一時的に
視程4500m
天気現象弱い雨霧雨
全天の4割程度の雲 雲底高度 120m
全天の8割程度の雲 雲底高度 210m
9日16時 CET ~ 9日18時 CET に徐々に
天気現象運行に影響にある天気現象が終了
全天の4割程度の雲 雲底高度 460m
全天の4割程度の雲 雲底高度 910m
10日11時 CET ~ 10日13時 CET に徐々に
風向・風速南南西 6m/s
TAF EBBR 090500Z 0906/1012 26008KT 8000 -RA SCT008 BKN014
PROB40 TEMPO 0907/0914 4500 -RADZ SCT004 BKN007
BECMG 0915/0917 NSW SCT015 SCT030
BECMG 1010/1012 20012KT